Cincinnati, Ohio
Traffic Map
Current Weather Conditions
Cincinnati, Ohio
Overcast Moderate Rain
Overcast
42°
Feels Like: 39°
Wind Chill: 39° Ceiling: 600
Heat Index: 42° Visibility: 1.2mi
Dew Point: 42° Wind: 5mph
Humidity: 100% Direction: 220° (SW)
Pressure: 29.79in Gusts: 0mph
Raw Report DataKLUK 032021Z 22004KT 1 1/4SM R21L/2400VP6000FT RA BR OVC006 06/06 A2979 RMK AO2 CIG 005V010 T00560056 PNO $
Traffic Incident Summary
Active as of:
Severity:
Category:
InformationThere was an issue retrieving the traffic information for this location. Please try a different location or try again shortly.
Advertisements
Track Severe Weather on mobile